Time;durP1;ratioP1;P1;durP2;ratioP2;P2;SDS_P1;SDS_P2;PMS_P1;PMS_P2;Temp;Humidity;BMP_temperature;BMP_pressure;BME280_temperature;BME280_humidity;BME280_pressure;Samples;Min_cycle;Max_cycle;Signal;HPM_P1;HPM_P2
2022/11/01 00:01:48;;;;;;;66.23;50.23;;;13.60;1.00;;;;;;6310904;22;20419;-78
2022/11/01 00:04:19;;;;;;;66.50;51.47;;;13.70;1.00;;;;;;6311760;22;20430;-78
2022/11/01 00:06:46;;;;;;;69.43;52.00;;;13.70;1.00;;;;;;6311475;22;20409;-81
2022/11/01 00:09:12;;;;;;;70.67;51.67;;;13.70;1.00;;;;;;6309005;22;20445;-78
2022/11/01 00:11:42;;;;;;;60.70;51.43;;;13.70;1.00;;;;;;6318836;22;21236;-78
2022/11/01 00:14:21;;;;;;;72.27;51.70;;;13.70;1.00;;;;;;6297340;22;20417;-78
2022/11/01 00:16:48;;;;;;;69.90;50.80;;;13.70;1.00;;;;;;6309935;22;20435;-79
2022/11/01 00:19:18;;;;;;;67.90;50.53;;;13.70;1.00;;;;;;6311163;22;20431;-78
2022/11/01 00:21:46;;;;;;;65.87;50.13;;;13.60;1.00;;;;;;6310322;22;20487;-79
2022/11/01 00:24:13;;;;;;;72.33;51.77;;;13.60;1.00;;;;;;6296141;22;20485;-79
2022/11/01 00:26:40;;;;;;;62.13;49.47;;;13.60;1.00;;;;;;6318823;22;20438;-80
2022/11/01 00:29:09;;;;;;;62.53;50.53;;;13.70;1.00;;;;;;6311473;22;20915;-80
2022/11/01 00:31:39;;;;;;;60.70;49.97;;;13.70;1.00;;;;;;6312160;22;21160;-79
2022/11/01 00:34:09;;;;;;;67.90;50.97;;;13.70;1.00;;;;;;6321103;22;20434;-78
2022/11/01 00:36:42;;;;;;;67.20;50.07;;;13.70;1.00;;;;;;6312239;22;20420;-78
2022/11/01 00:39:13;;;;;;;62.70;47.57;;;13.70;1.00;;;;;;6313036;22;21155;-78
2022/11/01 00:41:41;;;;;;;59.60;47.70;;;13.70;1.00;;;;;;6313276;22;20420;-79
2022/11/01 00:44:08;;;;;;;61.67;49.73;;;13.80;1.00;;;;;;6313456;22;20417;-79
2022/11/01 00:46:38;;;;;;;72.30;50.03;;;13.70;1.00;;;;;;6313571;22;20540;-81
2022/11/01 00:49:05;;;;;;;66.47;48.50;;;13.70;1.00;;;;;;6312375;22;20443;-78
2022/11/01 00:51:35;;;;;;;63.83;49.20;;;13.70;1.00;;;;;;6313455;22;20420;-79
2022/11/01 00:54:02;;;;;;;67.33;46.90;;;13.80;1.00;;;;;;6322173;22;20430;-79
2022/11/01 00:56:28;;;;;;;63.23;51.77;;;13.80;1.00;;;;;;6312795;22;20432;-80
2022/11/01 00:58:55;;;;;;;61.43;49.10;;;13.90;1.00;;;;;;6310460;22;20843;-78
2022/11/01 01:01:22;;;;;;;60.17;47.90;;;13.90;1.00;;;;;;6310436;22;20424;-77
2022/11/01 01:03:50;;;;;;;56.87;47.03;;;13.80;1.00;;;;;;6311976;22;20428;-80
2022/11/01 01:06:17;;;;;;;57.93;44.47;;;13.90;1.00;;;;;;6312634;22;20429;-79
2022/11/01 01:08:45;;;;;;;60.13;46.00;;;13.90;1.00;;;;;;6309948;22;20760;-80
2022/11/01 01:11:13;;;;;;;56.47;47.00;;;14.00;1.00;;;;;;6320366;22;20423;-79
2022/11/01 01:13:41;;;;;;;58.53;47.90;;;13.90;1.00;;;;;;6312255;22;20427;-80
2022/11/01 01:16:09;;;;;;;59.07;49.27;;;13.80;1.00;;;;;;6298404;22;20415;-80
2022/11/01 01:18:38;;;;;;;63.83;50.87;;;13.70;1.00;;;;;;6312818;22;20397;-80
2022/11/01 01:21:10;;;;;;;67.50;52.47;;;13.50;1.00;;;;;;6312181;22;20423;-80
2022/11/01 01:23:37;;;;;;;65.83;50.70;;;13.40;1.00;;;;;;6312521;22;20426;-81
2022/11/01 01:26:08;;;;;;;63.23;51.53;;;13.40;1.00;;;;;;6299350;22;20409;-79
2022/11/01 01:28:35;;;;;;;66.90;51.77;;;13.40;1.00;;;;;;6313282;22;20414;-82
2022/11/01 01:31:06;;;;;;;66.07;50.70;;;13.40;1.00;;;;;;6311508;22;20430;-78
2022/11/01 01:33:33;;;;;;;63.37;49.10;;;13.50;1.00;;;;;;6321657;22;20831;-79
2022/11/01 01:36:02;;;;;;;58.03;45.80;;;13.60;1.00;;;;;;6310360;22;20411;-79
2022/11/01 01:38:31;;;;;;;58.23;46.23;;;13.60;1.00;;;;;;6312097;22;20412;-80
2022/11/01 01:41:54;;;;;;;58.30;46.40;;;13.60;1.00;;;;;;6310950;22;20515;-80
2022/11/01 01:44:02;;;;;;;52.40;46.30;;;13.50;1.00;;;;;;6302913;22;20487;-79
2022/11/01 01:46:29;;;;;;;54.13;46.63;;;13.50;1.00;;;;;;6307669;22;20741;-79
2022/11/01 01:49:01;;;;;;;53.47;45.20;;;13.50;1.00;;;;;;6311482;22;20489;-80
2022/11/01 01:51:30;;;;;;;52.37;45.00;;;13.40;1.00;;;;;;6313015;22;20463;-78
2022/11/01 01:54:02;;;;;;;57.63;45.30;;;13.40;1.00;;;;;;6311724;22;21058;-79
2022/11/01 01:56:36;;;;;;;57.53;43.80;;;13.40;1.00;;;;;;6312286;22;20513;-79
2022/11/01 01:59:05;;;;;;;53.67;44.27;;;13.40;1.00;;;;;;6312105;22;21230;-80
2022/11/01 02:01:35;;;;;;;53.07;43.37;;;13.40;1.00;;;;;;6312012;22;20416;-78
2022/11/01 02:04:02;;;;;;;57.50;43.17;;;13.50;1.00;;;;;;6308131;22;21020;-82
2022/11/01 02:06:29;;;;;;;49.23;41.23;;;13.50;1.00;;;;;;6310490;22;20732;-78
2022/11/01 02:09:00;;;;;;;53.80;42.10;;;13.50;1.00;;;;;;6309366;22;20416;-79
2022/11/01 02:11:27;;;;;;;57.63;42.90;;;13.50;1.00;;;;;;6309442;22;20424;-78
2022/11/01 02:13:56;;;;;;;49.40;39.90;;;13.50;1.00;;;;;;6310181;22;20433;-79
2022/11/01 02:16:45;;;;;;;46.10;41.13;;;13.50;1.00;;;;;;6312435;22;20421;-81
2022/11/01 02:19:51;;;;;;;47.00;41.83;;;13.50;1.00;;;;;;6310019;22;20451;-79
2022/11/01 02:22:25;;;;;;;49.80;40.00;;;13.50;1.00;;;;;;6290086;22;20441;-81
2022/11/01 02:25:32;;;;;;;46.73;39.43;;;13.50;1.00;;;;;;6294335;22;20437;-80
2022/11/01 02:28:19;;;;;;;57.17;45.30;;;13.40;1.00;;;;;;6324715;22;20412;-79
2022/11/01 02:30:56;;;;;;;51.40;41.83;;;13.30;1.00;;;;;;6309797;22;20453;-79
2022/11/01 02:33:30;;;;;;;51.00;40.27;;;13.30;1.00;;;;;;6309961;22;20417;-80
2022/11/01 02:36:04;;;;;;;46.83;40.83;;;13.30;1.00;;;;;;6308687;22;20444;-79
2022/11/01 02:38:40;;;;;;;51.90;40.83;;;13.30;1.00;;;;;;6315777;22;21255;-79
2022/11/01 02:41:11;;;;;;;49.23;42.40;;;13.20;1.00;;;;;;6312822;22;20419;-79
2022/11/01 02:43:45;;;;;;;50.87;43.40;;;13.20;1.00;;;;;;6317149;22;20387;-79
2022/11/01 02:49:01;;;;;;;50.07;41.17;;;13.10;1.00;;;;;;6294739;22;20589;-80
2022/11/01 02:51:29;;;;;;;51.60;44.27;;;13.10;1.00;;;;;;6333061;22;20459;-80
2022/11/01 02:53:56;;;;;;;53.33;43.47;;;13.00;1.00;;;;;;6305749;22;20918;-81
2022/11/01 02:56:22;;;;;;;55.90;45.40;;;13.00;1.00;;;;;;6311267;22;20409;-78
2022/11/01 02:58:51;;;;;;;55.27;46.77;;;12.90;1.00;;;;;;6309779;22;21184;-78
2022/11/01 03:01:26;;;;;;;55.93;45.67;;;12.80;1.00;;;;;;6310377;22;20424;-79
2022/11/01 03:03:56;;;;;;;57.50;44.93;;;12.80;1.00;;;;;;6309298;22;20840;-79
2022/11/01 03:06:33;;;;;;;53.10;44.47;;;12.80;1.00;;;;;;6305614;22;20439;-81
2022/11/01 03:09:03;;;;;;;52.90;45.80;;;12.80;1.00;;;;;;6306289;22;20415;-81
2022/11/01 03:11:42;;;;;;;57.00;46.60;;;12.90;1.00;;;;;;6317459;22;20433;-83
2022/11/01 03:14:20;;;;;;;54.80;43.90;;;12.90;1.00;;;;;;6306444;22;20499;-82
2022/11/01 03:16:54;;;;;;;53.70;45.20;;;12.80;1.00;;;;;;6308816;22;20821;-82
2022/11/01 03:19:34;;;;;;;56.20;46.13;;;12.80;1.00;;;;;;6310884;22;20427;-81
2022/11/01 03:22:08;;;;;;;57.80;46.57;;;12.70;1.00;;;;;;6310500;22;20473;-81
2022/11/01 03:24:43;;;;;;;58.10;47.50;;;12.70;1.00;;;;;;6311618;22;20901;-82
2022/11/01 03:27:16;;;;;;;55.67;46.53;;;12.80;1.00;;;;;;6309423;22;20427;-84
2022/11/01 03:29:49;;;;;;;48.77;43.20;;;12.80;1.00;;;;;;6311954;22;20424;-83
2022/11/01 03:32:26;;;;;;;59.60;44.73;;;12.80;1.00;;;;;;6300473;22;20510;-82
2022/11/01 03:34:55;;;;;;;52.03;44.77;;;12.90;1.00;;;;;;6328049;22;20444;-83
2022/11/01 03:37:26;;;;;;;52.10;44.47;;;12.80;1.00;;;;;;6313215;22;20429;-83
2022/11/01 03:39:55;;;;;;;50.27;43.80;;;12.80;1.00;;;;;;6311737;22;20826;-82
2022/11/01 03:42:24;;;;;;;53.43;44.83;;;12.80;1.00;;;;;;6312537;22;20767;-83
2022/11/01 03:44:59;;;;;;;55.87;45.87;;;12.80;1.00;;;;;;6312557;22;20499;-82
2022/11/01 03:47:27;;;;;;;53.87;45.63;;;12.80;1.00;;;;;;6312653;22;20480;-83
2022/11/01 03:50:13;;;;;;;52.00;44.67;;;12.80;1.00;;;;;;6313132;22;20456;-82
2022/11/01 03:52:41;;;;;;;55.03;45.33;;;12.70;1.00;;;;;;6313552;22;20508;-82
2022/11/01 03:55:17;;;;;;;59.23;47.60;;;12.60;1.00;;;;;;6303797;22;20945;-83
2022/11/01 03:57:44;;;;;;;50.33;43.87;;;12.60;1.00;;;;;;6302161;22;20434;-83
2022/11/01 04:00:14;;;;;;;55.10;47.87;;;12.60;1.00;;;;;;6302300;22;20489;-82
2022/11/01 04:02:41;;;;;;;60.43;47.57;;;12.60;1.00;;;;;;6317835;22;20421;-82
2022/11/01 04:05:09;;;;;;;60.30;47.37;;;12.60;1.00;;;;;;6313295;22;20402;-85
2022/11/01 04:07:36;;;;;;;60.23;49.83;;;12.60;1.00;;;;;;6315126;22;20457;-82
2022/11/01 04:10:08;;;;;;;60.93;48.13;;;12.50;1.00;;;;;;6301418;22;20413;-83
2022/11/01 04:12:35;;;;;;;54.57;48.17;;;12.50;1.00;;;;;;6311764;22;20832;-82
2022/11/01 04:20:35;;;;;;;58.93;49.03;;;12.40;1.00;;;;;;6312486;22;20409;-81
2022/11/01 04:23:03;;;;;;;58.60;48.50;;;12.40;1.00;;;;;;6312815;22;20417;-82
2022/11/01 04:25:34;;;;;;;65.90;49.53;;;12.40;1.00;;;;;;6324994;22;20482;-81
2022/11/01 04:28:01;;;;;;;68.07;53.10;;;12.40;1.00;;;;;;6313485;22;20437;-82
2022/11/01 04:30:29;;;;;;;68.77;54.47;;;12.40;1.00;;;;;;6314183;22;20374;-81
2022/11/01 04:32:56;;;;;;;62.83;51.70;;;12.30;1.00;;;;;;6313527;22;20562;-83
2022/11/01 04:35:23;;;;;;;72.00;54.33;;;12.30;1.00;;;;;;6314615;22;20892;-83
2022/11/01 04:37:56;;;;;;;60.10;49.63;;;12.20;1.00;;;;;;6311193;22;20819;-83
2022/11/01 04:40:23;;;;;;;66.37;52.00;;;12.20;1.00;;;;;;6313311;22;20895;-82
2022/11/01 04:42:52;;;;;;;66.37;53.03;;;12.20;1.00;;;;;;6312664;22;20439;-81
2022/11/01 04:45:20;;;;;;;67.20;52.03;;;12.20;1.00;;;;;;6313889;22;21774;-82
2022/11/01 04:50:31;;;;;;;71.00;52.73;;;12.20;1.00;;;;;;6310048;22;21252;-82
2022/11/01 04:52:59;;;;;;;70.90;53.30;;;12.20;1.00;;;;;;6313861;22;20509;-83
2022/11/01 04:55:27;;;;;;;73.40;51.07;;;12.20;1.00;;;;;;6316670;22;20435;-82
2022/11/01 04:57:56;;;;;;;62.57;50.50;;;12.20;1.00;;;;;;6304980;22;20459;-82
2022/11/01 05:00:24;;;;;;;69.10;52.67;;;12.20;1.00;;;;;;6312623;22;20459;-82
2022/11/01 05:02:50;;;;;;;72.83;52.70;;;12.20;1.00;;;;;;6284141;22;20443;-82
2022/11/01 05:05:18;;;;;;;69.47;53.10;;;12.20;1.00;;;;;;6311058;22;20447;-82
2022/11/01 05:07:45;;;;;;;81.63;54.40;;;12.10;1.00;;;;;;6313982;22;20430;-83
2022/11/01 05:10:12;;;;;;;70.67;50.53;;;12.10;1.00;;;;;;6313686;22;21173;-82
2022/11/01 05:12:41;;;;;;;70.17;50.50;;;12.10;1.00;;;;;;6314831;22;20434;-81
2022/11/01 05:15:12;;;;;;;72.63;52.43;;;12.10;1.00;;;;;;6316083;22;20451;-81
2022/11/01 05:17:42;;;;;;;68.03;49.50;;;12.10;1.00;;;;;;6317065;22;20442;-82
2022/11/01 05:20:10;;;;;;;71.87;52.20;;;12.10;1.00;;;;;;6317670;22;20405;-83
2022/11/01 05:22:37;;;;;;;72.30;51.33;;;12.10;1.00;;;;;;6318141;22;20454;-83
2022/11/01 05:25:08;;;;;;;69.57;50.87;;;12.10;1.00;;;;;;6302897;22;20482;-81
2022/11/01 05:27:35;;;;;;;77.60;51.80;;;12.10;1.00;;;;;;6316953;22;20440;-81
2022/11/01 05:30:01;;;;;;;72.87;50.50;;;12.20;1.00;;;;;;6315374;22;20503;-81
2022/11/01 05:32:30;;;;;;;59.90;45.97;;;12.10;1.00;;;;;;6316737;22;20413;-82
2022/11/01 05:34:57;;;;;;;72.43;55.07;;;12.20;1.00;;;;;;6316166;22;20478;-81
2022/11/01 05:37:24;;;;;;;60.70;46.90;;;12.10;1.00;;;;;;6315801;22;20444;-82
2022/11/01 05:39:51;;;;;;;65.77;50.87;;;12.10;1.00;;;;;;6315977;22;20954;-80
2022/11/01 05:42:18;;;;;;;71.10;53.67;;;12.00;1.00;;;;;;6318016;22;20808;-82
2022/11/01 05:44:45;;;;;;;65.30;48.40;;;12.10;1.00;;;;;;6316969;22;20425;-80
2022/11/01 05:47:11;;;;;;;60.87;47.83;;;12.00;1.00;;;;;;6301898;22;20488;-81
2022/11/01 05:49:43;;;;;;;66.50;47.07;;;12.00;1.00;;;;;;6317874;22;21231;-82
2022/11/01 05:52:13;;;;;;;69.10;50.97;;;11.90;1.00;;;;;;6317303;22;20419;-82
2022/11/01 05:54:43;;;;;;;60.13;48.00;;;11.90;1.00;;;;;;6318786;22;20516;-82
2022/11/01 05:57:09;;;;;;;60.67;49.10;;;11.90;1.00;;;;;;6317262;22;20804;-83
2022/11/01 05:59:36;;;;;;;61.33;47.23;;;12.00;1.00;;;;;;6312972;22;20518;-83
2022/11/01 06:02:03;;;;;;;57.93;48.30;;;11.90;1.00;;;;;;6329739;22;20443;-81
2022/11/01 06:04:30;;;;;;;63.20;48.23;;;11.90;1.00;;;;;;6318101;22;20418;-83
2022/11/01 06:06:58;;;;;;;56.17;43.77;;;11.90;1.00;;;;;;6317832;22;20440;-82
2022/11/01 06:09:26;;;;;;;63.30;47.03;;;12.00;1.00;;;;;;6315261;22;20419;-82
2022/11/01 06:11:53;;;;;;;62.70;46.77;;;12.00;1.00;;;;;;6299937;22;20471;-82
2022/11/01 06:14:22;;;;;;;51.93;44.27;;;12.00;1.00;;;;;;6304053;22;20429;-81
2022/11/01 06:16:49;;;;;;;57.97;45.47;;;12.00;1.00;;;;;;6316533;22;20429;-81
2022/11/01 06:19:16;;;;;;;53.27;46.40;;;11.90;1.00;;;;;;6315811;22;20417;-81
2022/11/01 06:21:43;;;;;;;55.00;44.90;;;11.90;1.00;;;;;;6316196;22;20425;-81
2022/11/01 06:24:12;;;;;;;57.23;46.23;;;12.00;1.00;;;;;;6314265;22;20414;-81
2022/11/01 06:26:38;;;;;;;57.37;45.57;;;11.90;1.00;;;;;;6314979;22;21242;-79
2022/11/01 06:29:07;;;;;;;57.07;47.33;;;11.90;1.00;;;;;;6311083;22;20505;-80
2022/11/01 06:31:33;;;;;;;53.30;46.07;;;12.00;1.00;;;;;;6314187;22;20499;-79
2022/11/01 06:34:00;;;;;;;55.50;44.60;;;12.00;1.00;;;;;;6320601;22;20499;-82
2022/11/01 06:36:27;;;;;;;59.30;44.60;;;12.10;1.00;;;;;;6311433;22;20523;-80
2022/11/01 06:38:54;;;;;;;53.80;46.47;;;12.20;1.00;;;;;;6301562;22;20423;-79
2022/11/01 06:41:23;;;;;;;62.67;47.30;;;12.20;1.00;;;;;;6311292;22;20550;-80
2022/11/01 06:43:50;;;;;;;56.73;45.80;;;12.20;1.00;;;;;;6312581;22;20401;-79
2022/11/01 06:46:17;;;;;;;57.30;46.33;;;12.20;1.00;;;;;;6310042;22;20429;-80
2022/11/01 06:48:47;;;;;;;60.83;47.37;;;12.30;1.00;;;;;;6312525;22;20829;-81
2022/11/01 06:51:13;;;;;;;58.57;47.10;;;12.40;1.00;;;;;;6290911;22;20436;-79
2022/11/01 06:53:43;;;;;;;59.67;46.00;;;12.40;1.00;;;;;;6307172;22;20512;-81
2022/11/01 06:56:13;;;;;;;55.17;46.00;;;12.50;1.00;;;;;;6308161;22;20444;-82
2022/11/01 06:58:53;;;;;;;52.60;46.30;;;12.60;1.00;;;;;;6278988;22;20959;-83
2022/11/01 07:01:24;;;;;;;54.13;44.90;;;12.60;1.00;;;;;;6312236;22;20420;-82
2022/11/01 07:03:51;;;;;;;56.27;45.53;;;12.50;1.00;;;;;;6301104;22;20859;-83
2022/11/01 07:06:18;;;;;;;58.13;45.80;;;12.60;1.00;;;;;;6314750;22;20447;-84
2022/11/01 07:08:46;;;;;;;59.97;43.53;;;12.70;1.00;;;;;;6325076;22;20434;-81
2022/11/01 07:11:13;;;;;;;56.17;44.90;;;12.80;1.00;;;;;;6311825;22;20420;-81
2022/11/01 07:13:40;;;;;;;52.00;42.50;;;12.80;1.00;;;;;;6312312;22;20425;-81
2022/11/01 07:16:10;;;;;;;50.00;42.30;;;12.90;1.00;;;;;;6301210;22;20449;-84
2022/11/01 07:18:37;;;;;;;53.67;43.30;;;13.00;1.00;;;;;;6331199;22;21193;-84
2022/11/01 07:21:13;;;;;;;53.00;41.77;;;13.10;1.00;;;;;;6315407;22;20797;-82
2022/11/01 07:23:42;;;;;;;53.73;44.40;;;13.30;1.00;;;;;;6317319;22;20502;-82
2022/11/01 07:26:09;;;;;;;52.70;42.70;;;13.30;1.00;;;;;;6314763;22;20403;-82
2022/11/01 07:28:38;;;;;;;47.93;41.00;;;13.30;1.00;;;;;;6315331;22;20412;-82
2022/11/01 07:31:05;;;;;;;48.23;42.80;;;13.20;1.00;;;;;;6313345;22;20447;-82
2022/11/01 07:33:43;;;;;;;48.90;41.13;;;13.20;1.00;;;;;;6316479;22;20420;-83
2022/11/01 07:36:12;;;;;;;53.03;40.80;;;13.20;1.00;;;;;;6313991;22;20554;-82
2022/11/01 07:38:42;;;;;;;53.37;41.47;;;13.30;1.00;;;;;;6318051;22;20959;-80
2022/11/01 07:41:11;;;;;;;47.47;41.13;;;13.30;1.00;;;;;;6315607;22;20402;-81
2022/11/01 07:43:42;;;;;;;45.43;39.80;;;13.30;1.00;;;;;;6289846;22;20433;-81
2022/11/01 07:46:10;;;;;;;49.27;39.80;;;13.40;1.00;;;;;;6315000;22;20508;-82
2022/11/01 07:48:43;;;;;;;48.67;39.27;;;13.50;1.00;;;;;;6314722;22;20467;-82
2022/11/01 07:51:14;;;;;;;46.33;37.77;;;13.60;1.00;;;;;;6306208;22;20420;-82
2022/11/01 07:53:44;;;;;;;43.87;39.17;;;13.70;1.00;;;;;;6305351;22;20542;-81
2022/11/01 07:56:13;;;;;;;43.83;37.80;;;13.70;1.00;;;;;;6266570;22;20434;-82
2022/11/01 07:58:42;;;;;;;45.70;37.17;;;13.70;1.00;;;;;;6297057;22;20548;-82
2022/11/01 08:01:12;;;;;;;41.83;35.23;;;13.80;1.00;;;;;;6316113;22;20442;-80
2022/11/01 08:03:41;;;;;;;42.07;35.20;;;13.70;1.00;;;;;;6317069;22;20503;-81
2022/11/01 08:06:09;;;;;;;41.10;33.80;;;13.80;1.00;;;;;;6323156;22;20916;-81
2022/11/01 08:08:37;;;;;;;38.60;33.40;;;13.80;1.00;;;;;;6313858;22;21194;-81
2022/11/01 08:11:06;;;;;;;45.60;35.47;;;13.80;1.00;;;;;;6312893;22;20417;-82
2022/11/01 08:13:33;;;;;;;45.33;33.97;;;13.80;1.00;;;;;;6313395;22;20558;-82
2022/11/01 08:16:02;;;;;;;38.10;34.00;;;13.90;1.00;;;;;;6321163;22;20550;-81
2022/11/01 08:18:29;;;;;;;42.40;35.90;;;14.00;1.00;;;;;;6289911;22;20413;-82
2022/11/01 08:22:00;;;;;;;37.40;32.57;;;13.90;1.00;;;;;;6320661;22;20506;-84
2022/11/01 08:24:40;;;;;;;39.20;32.80;;;14.00;1.00;;;;;;6300186;22;21214;-82
2022/11/01 08:27:08;;;;;;;38.70;30.63;;;14.10;1.00;;;;;;6270272;22;21160;-80
2022/11/01 08:29:35;;;;;;;35.43;31.30;;;14.30;1.00;;;;;;6315096;22;20491;-82
2022/11/01 08:32:02;;;;;;;34.10;30.37;;;14.50;1.00;;;;;;6314600;22;20419;-79
2022/11/01 08:34:36;;;;;;;34.97;30.43;;;14.50;1.00;;;;;;6304162;22;20491;-84
2022/11/01 08:37:03;;;;;;;34.87;29.80;;;14.60;1.00;;;;;;6283967;22;20447;-84
2022/11/01 08:39:34;;;;;;;33.80;29.00;;;14.80;1.00;;;;;;6323152;22;20987;-81
2022/11/01 08:42:04;;;;;;;32.50;27.67;;;14.70;1.00;;;;;;6322460;22;20454;-81
2022/11/01 08:44:33;;;;;;;31.23;27.80;;;14.90;1.00;;;;;;6315484;22;20767;-81
2022/11/01 08:47:01;;;;;;;31.97;27.70;;;15.10;1.00;;;;;;6299327;22;20393;-81
2022/11/01 08:49:28;;;;;;;30.23;26.83;;;15.20;1.00;;;;;;6335972;22;20420;-81
2022/11/01 08:52:00;;;;;;;27.33;24.43;;;15.30;1.00;;;;;;6291013;22;20444;-82
2022/11/01 08:54:33;;;;;;;30.23;26.60;;;15.40;1.00;;;;;;6305847;22;20429;-81
2022/11/01 08:57:05;;;;;;;27.40;24.23;;;15.50;1.00;;;;;;6278341;22;20569;-83
2022/11/01 08:59:34;;;;;;;30.27;24.50;;;15.60;1.00;;;;;;6285258;22;21051;-86
2022/11/01 09:02:01;;;;;;;30.43;23.33;;;15.70;1.00;;;;;;6311314;22;20497;-82
2022/11/01 09:07:37;;;;;;;26.40;23.30;;;16.00;1.00;;;;;;6294594;22;20431;-82
2022/11/01 09:10:05;;;;;;;26.50;23.43;;;16.20;1.00;;;;;;6271692;22;20413;-84
2022/11/01 09:12:33;;;;;;;26.77;22.67;;;16.40;1.00;;;;;;6324789;22;20413;-84
2022/11/01 09:15:02;;;;;;;25.90;22.23;;;16.70;1.00;;;;;;6307225;22;20419;-84
2022/11/01 09:17:32;;;;;;;25.37;22.53;;;17.00;1.00;;;;;;6301381;22;20407;-84
2022/11/01 09:20:02;;;;;;;29.60;22.80;;;17.40;1.00;;;;;;6303280;22;20400;-83
2022/11/01 09:22:32;;;;;;;24.30;20.90;;;17.50;1.00;;;;;;6297512;22;20389;-83
2022/11/01 09:25:03;;;;;;;24.87;21.53;;;17.40;1.00;;;;;;6318743;22;20453;-85
2022/11/01 09:27:34;;;;;;;27.83;21.70;;;17.40;1.00;;;;;;6322541;22;20397;-85
2022/11/01 09:30:05;;;;;;;23.97;19.43;;;17.40;1.00;;;;;;6312547;22;20491;-84
2022/11/01 09:32:33;;;;;;;25.00;20.63;;;17.50;1.00;;;;;;6316155;22;20409;-83
2022/11/01 09:35:05;;;;;;;25.60;20.10;;;17.80;1.00;;;;;;6305082;22;20426;-85
2022/11/01 09:37:32;;;;;;;23.33;19.80;;;18.10;1.00;;;;;;6306299;22;20474;-86
2022/11/01 09:40:03;;;;;;;23.97;19.40;;;18.20;1.00;;;;;;6295183;22;20418;-82
2022/11/01 09:42:40;;;;;;;28.47;19.43;;;17.90;1.00;;;;;;6315056;22;20418;-84
2022/11/01 09:45:23;;;;;;;25.07;19.40;;;17.70;1.00;;;;;;6279296;22;20458;-83
2022/11/01 09:47:54;;;;;;;23.30;19.17;;;17.60;1.00;;;;;;6300840;22;20517;-83
2022/11/01 09:50:26;;;;;;;19.80;17.50;;;17.60;1.00;;;;;;6320630;22;20405;-85
2022/11/01 09:52:55;;;;;;;21.87;18.63;;;17.60;1.00;;;;;;6318008;22;20506;-84
2022/11/01 09:55:30;;;;;;;23.30;17.60;;;17.60;1.00;;;;;;6306436;22;20416;-85
2022/11/01 09:58:21;;;;;;;22.97;16.80;;;17.90;1.00;;;;;;6302281;22;20445;-84
2022/11/01 10:01:38;;;;;;;20.77;16.27;;;18.00;1.00;;;;;;6292051;22;20421;-84
2022/11/01 10:04:34;;;;;;;23.60;18.07;;;18.00;1.00;;;;;;6292142;22;20562;-84
2022/11/01 10:07:06;;;;;;;23.00;17.33;;;17.90;1.00;;;;;;6294972;22;20489;-82
2022/11/01 10:09:44;;;;;;;24.27;16.77;;;17.70;1.00;;;;;;6308925;22;20430;-84
2022/11/01 10:12:22;;;;;;;20.57;16.93;;;17.60;1.00;;;;;;6320814;22;20485;-84
2022/11/01 10:15:04;;;;;;;25.07;17.87;;;17.40;1.00;;;;;;6317473;22;20416;-85
2022/11/01 10:17:50;;;;;;;22.23;17.67;;;17.30;1.00;;;;;;6331420;22;20504;-84
2022/11/01 10:20:20;;;;;;;21.77;16.20;;;17.30;1.00;;;;;;6307140;22;20435;-83
2022/11/01 10:22:53;;;;;;;22.80;19.80;;;17.40;1.00;;;;;;6318464;22;20923;-83
2022/11/01 10:25:24;;;;;;;21.80;17.40;;;17.40;1.00;;;;;;6334787;22;20484;-84
2022/11/01 10:28:02;;;;;;;21.37;17.07;;;17.30;1.00;;;;;;6325388;22;20965;-82
2022/11/01 10:30:42;;;;;;;21.13;17.30;;;17.30;1.00;;;;;;6312831;22;20482;-83
2022/11/01 10:33:31;;;;;;;19.40;15.23;;;17.40;1.00;;;;;;6314031;22;20411;-82
2022/11/01 10:36:14;;;;;;;21.97;16.30;;;17.40;1.00;;;;;;6278654;22;20416;-84
2022/11/01 10:38:53;;;;;;;22.23;16.23;;;17.50;1.00;;;;;;6328020;22;20433;-86
2022/11/01 10:41:32;;;;;;;19.53;16.30;;;17.70;1.00;;;;;;6284689;22;20392;-85
2022/11/01 10:44:11;;;;;;;20.90;15.30;;;17.80;1.00;;;;;;6275834;22;20572;-83
2022/11/01 10:46:52;;;;;;;20.40;17.90;;;18.00;1.00;;;;;;6315161;22;20435;-84
2022/11/01 10:50:11;;;;;;;17.00;15.20;;;18.10;1.00;;;;;;6309508;22;20378;-83
2022/11/01 10:52:55;;;;;;;22.00;15.87;;;18.10;1.00;;;;;;6115184;22;20388;-83
2022/11/01 10:55:31;;;;;;;15.30;12.73;;;18.00;1.00;;;;;;6206903;22;20434;-83
2022/11/01 10:58:22;;;;;;;21.60;15.07;;;18.00;1.00;;;;;;6201757;22;21271;-84
2022/11/01 11:01:05;;;;;;;17.97;14.30;;;18.00;1.00;;;;;;6217177;22;20823;-85
2022/11/01 11:03:45;;;;;;;19.57;16.43;;;17.90;1.00;;;;;;6203349;22;20474;-84
2022/11/01 11:06:25;;;;;;;;;;;;;;;;;;;;;
2022/11/01 11:08:55;;;;;;;22.70;15.20;;;18.10;1.00;;;;;;6162412;22;39666;-83
2022/11/01 11:11:45;;;;;;;18.30;13.40;;;18.40;1.00;;;;;;6346019;22;20555;-84
2022/11/01 11:14:24;;;;;;;24.47;14.70;;;18.60;1.00;;;;;;6336691;22;20428;-83
2022/11/01 11:17:12;;;;;;;19.87;13.90;;;19.20;1.00;;;;;;6307997;22;20413;-85
2022/11/01 11:20:04;;;;;;;17.80;12.50;;;20.50;1.00;;;;;;6316164;22;20391;-83
2022/11/01 11:22:46;;;;;;;18.20;12.40;;;21.50;1.00;;;;;;6331372;22;21162;-83
2022/11/01 11:30:53;;;;;;;17.53;11.63;;;22.00;1.00;;;;;;6214083;23;20430;-85
2022/11/01 11:33:23;;;;;;;22.87;11.17;;;22.10;1.00;;;;;;6211482;23;20447;-83
2022/11/01 11:36:04;;;;;;;20.53;11.40;;;21.90;1.00;;;;;;6214617;23;20442;-83
2022/11/01 11:38:45;;;;;;;16.40;9.90;;;21.50;1.00;;;;;;6200961;23;20446;-82
2022/11/01 11:41:13;;;;;;;13.47;9.90;;;21.20;1.00;;;;;;6210190;23;20885;-84
2022/11/01 11:43:43;;;;;;;14.37;8.97;;;20.90;1.00;;;;;;6230234;23;20391;-84
2022/11/01 11:46:25;;;;;;;15.90;9.87;;;20.60;1.00;;;;;;6227202;23;20439;-84
2022/11/01 11:49:06;;;;;;;14.57;10.57;;;20.30;1.00;;;;;;6227242;23;20418;-84
2022/11/01 11:51:47;;;;;;;14.40;9.67;;;20.10;1.00;;;;;;6225169;22;20821;-83
2022/11/01 11:54:27;;;;;;;14.00;9.23;;;19.80;1.00;;;;;;6229847;23;20455;-84
2022/11/01 11:57:10;;;;;;;17.47;9.27;;;19.70;1.00;;;;;;6231222;23;20481;-85
2022/11/01 11:59:45;;;;;;;18.00;9.37;;;19.50;1.00;;;;;;6226614;23;20545;-83
2022/11/01 12:02:33;;;;;;;15.00;9.30;;;19.40;1.00;;;;;;6213104;22;20536;-83
2022/11/01 12:05:13;;;;;;;11.50;8.40;;;19.30;1.00;;;;;;6215998;22;20392;-83
2022/11/01 12:07:50;;;;;;;12.47;9.40;;;19.20;1.00;;;;;;6226109;22;20846;-87
2022/11/01 12:10:46;;;;;;;12.83;9.00;;;19.00;1.00;;;;;;6194145;23;20422;-85
2022/11/01 12:13:34;;;;;;;12.33;7.67;;;18.90;1.00;;;;;;6202090;22;21174;-86
2022/11/01 12:16:09;;;;;;;14.37;8.00;;;18.70;1.00;;;;;;6166352;22;20401;-87
2022/11/01 12:21:46;;;;;;;18.70;10.87;;;18.20;1.00;;;;;;6169688;23;20385;-86
2022/11/01 12:24:24;;;;;;;18.37;8.83;;;18.00;1.00;;;;;;6162804;22;20427;-86
2022/11/01 12:27:01;;;;;;;12.43;8.67;;;17.90;1.00;;;;;;6192033;22;20633;-86
2022/11/01 12:29:33;;;;;;;15.27;8.77;;;17.90;1.00;;;;;;6184721;22;20929;-86
2022/11/01 12:32:08;;;;;;;13.67;9.37;;;17.90;1.00;;;;;;6229843;23;20384;-84
2022/11/01 12:34:49;;;;;;;15.50;8.53;;;17.90;1.00;;;;;;6230517;23;20438;-84
2022/11/01 12:37:25;;;;;;;14.07;8.30;;;17.80;1.00;;;;;;6228883;23;20452;-85
2022/11/01 12:40:02;;;;;;;12.90;9.50;;;17.70;1.00;;;;;;6230619;22;20412;-85
2022/11/01 12:42:34;;;;;;;16.23;9.27;;;17.70;1.00;;;;;;6229056;23;20545;-85
2022/11/01 12:45:10;;;;;;;15.37;8.60;;;17.70;1.00;;;;;;6229783;23;20398;-87
2022/11/01 12:47:44;;;;;;;14.73;8.80;;;17.80;1.00;;;;;;6232436;23;20436;-86
2022/11/01 12:50:29;;;;;;;13.47;8.93;;;17.60;1.00;;;;;;6229897;23;20449;-86
2022/11/01 12:53:04;;;;;;;13.77;9.40;;;17.60;1.00;;;;;;6214899;23;20438;-84
2022/11/01 12:55:45;;;;;;;13.33;9.20;;;17.50;1.00;;;;;;6232845;23;20639;-84
2022/11/01 12:58:21;;;;;;;14.13;8.80;;;17.40;1.00;;;;;;6229009;23;20487;-83
2022/11/01 13:01:07;;;;;;;15.43;10.10;;;17.40;1.00;;;;;;6229378;23;20405;-85
2022/11/01 13:03:45;;;;;;;19.53;9.57;;;17.30;1.00;;;;;;6228177;23;20396;-85
2022/11/01 13:06:31;;;;;;;14.00;8.97;;;17.40;1.00;;;;;;6226452;22;20553;-87
2022/11/01 13:09:05;;;;;;;13.20;9.10;;;17.40;1.00;;;;;;6226277;23;20437;-87
2022/11/01 13:11:43;;;;;;;15.23;9.33;;;17.50;1.00;;;;;;6224034;23;20434;-85
2022/11/01 13:14:27;;;;;;;14.73;9.23;;;17.70;1.00;;;;;;6223847;23;20475;-86
2022/11/01 13:17:01;;;;;;;15.43;9.90;;;17.80;1.00;;;;;;6223009;23;20507;-86
2022/11/01 13:19:43;;;;;;;14.63;8.77;;;17.90;1.00;;;;;;6225426;23;21156;-86
2022/11/01 13:22:24;;;;;;;12.53;8.60;;;18.10;1.00;;;;;;6191153;23;20448;-87
2022/11/01 13:25:01;;;;;;;13.30;8.37;;;18.20;1.00;;;;;;6194166;23;20437;-86
2022/11/01 13:27:36;;;;;;;14.90;9.57;;;18.30;1.00;;;;;;6224447;23;20517;-86
2022/11/01 13:30:08;;;;;;;18.30;9.77;;;18.50;1.00;;;;;;6208709;23;20434;-86